Latest Weather Observations for St Lawrence

IDQ60801

Issued at 6:02 pm EST Friday 28 April 2017 (issued every 30 minutes, with the page automatically refreshed every 10 minutes)

About weather observations | Map of weather stations | Latest weather observations for QLD | Other Formats
Station Details ID: 033210 Name: ST LAWRENCE Lat: -22.35 Lon: 149.52 Height: 9.19 m
Data from the previous 72 hours. | See also: Recent months at St Lawrence
Date/Time
EST
Temp
°C
App
Temp
°C
Dew
Point
°C
Rel
Hum
%
Delta-T
°C
Wind Press
QNH
hPa
Press
MSL
hPa
Rain since
9am
mm
Dir  Spd
km/h
Gust
km/h
Spd
kts
Gust
kts
28/06:00pm 18.6 16.0 4.4 39 6.8 S 7 9 4 5 1015.8 1015.7 0.0
28/05:30pm 20.5 17.4 3.7 33 8.0 S 9 15 5 8 1015.6 1015.5 0.0
28/05:00pm 22.3 19.2 3.4 29 9.1 SSW 9 13 5 7 1015.2 1015.1 0.0
28/04:30pm 22.8 18.7 2.3 26 9.7 SSW 13 19 7 10 1015.0 1014.9 0.0
28/04:00pm 23.0 18.5 1.9 25 9.9 SSW 15 24 8 13 1014.7 1014.6 0.0
28/03:30pm 23.1 18.5 1.5 24 10.1 SSW 15 26 8 14 1014.5 1014.4 0.0
28/03:00pm 22.9 17.5 1.3 24 10.0 SSW 19 28 10 15 1014.3 1014.2 0.0
28/02:30pm 22.9 18.1 2.4 26 9.7 S 17 24 9 13 1014.4 1014.3 0.0
28/02:00pm 23.1 18.9 1.5 24 10.1 S 13 24 7 13 1014.5 1014.4 0.0
28/01:30pm 22.7 18.6 2.2 26 9.7 S 13 22 7 12 1014.9 1014.8 0.0
28/01:00pm 22.3 18.2 2.4 27 9.4 SSW 13 22 7 12 1015.6 1015.5 0.0
28/12:30pm 21.5 17.6 3.2 30 8.7 S 13 19 7 10 1016.0 1015.9 0.0
28/12:00pm 20.8 16.7 2.1 29 8.7 S 13 22 7 12 1016.6 1016.5 0.0
28/11:30am 20.5 15.9 3.7 33 8.0 S 17 24 9 13 1017.4 1017.3 0.0
28/11:00am 19.5 14.4 3.2 34 7.6 SSE 19 30 10 16 1018.1 1018.0 0.0
28/10:30am 18.7 12.8 1.7 32 7.7 S 22 37 12 20 1018.9 1018.9 0.0
28/10:00am 18.7 13.4 2.1 33 7.5 SSW 19 30 10 16 1019.2 1019.2 0.0
28/09:30am 17.7 11.8 1.7 34 7.2 S 22 37 12 20 1019.4 1019.4 0.0
28/09:00am 17.4 12.2 2.2 36 6.8 S 19 30 10 16 1019.3 1019.3 0.0
28/08:30am 16.1 11.7 2.5 40 6.1 S 15 24 8 13 1019.4 1019.4 0.0
28/08:00am 15.5 11.4 2.3 41 5.9 SSW 13 19 7 10 1019.0 1019.0 0.0
28/07:30am 14.0 10.9 3.5 49 4.7 S 9 15 5 8 1018.8 1018.8 0.0
28/07:00am 11.1 8.6 3.6 60 3.3 SW 6 7 3 4 1018.3 1018.2 0.0
28/06:30am 9.4 7.0 4.4 71 2.2 SW 6 9 3 5 1018.3 1018.2 0.0
28/06:00am 9.6 7.6 4.6 71 2.2 SW 4 6 2 3 1018.0 1017.9 0.0
28/05:30am 10.3 8.6 4.2 66 2.7 SSW 2 7 1 4 1017.6 1017.5 0.0
28/05:00am 11.4 10.0 3.4 58 3.5 CALM 0 4 0 2 1017.4 1017.3 0.0
28/04:30am 12.8 9.6 3.2 52 4.3 S 9 13 5 7 1017.1 1017.0 0.0
28/04:00am 14.0 10.0 2.9 47 4.9 S 13 17 7 9 1017.1 1017.0 0.0
28/03:30am 14.3 10.4 3.5 48 4.9 S 13 20 7 11 1017.1 1017.0 0.0
28/03:00am 14.3 11.3 4.0 50 4.7 S 9 17 5 9 1017.2 1017.1 0.0
28/02:30am 14.7 11.8 4.4 50 4.8 S 9 15 5 8 1017.4 1017.3 0.0
28/02:00am 15.2 12.3 4.9 50 4.8 S 9 15 5 8 1017.3 1017.2 0.0
28/01:30am 16.2 12.5 4.6 46 5.5 S 13 20 7 11 1017.1 1017.0 0.0
28/01:00am 16.8 12.7 4.5 44 5.8 S 15 24 8 13 1017.0 1016.9 0.0
28/12:30am 17.0 13.0 5.0 45 5.7 S 15 26 8 14 1016.8 1016.7 0.0
28/12:00am 17.1 13.4 6.3 49 5.3 S 15 22 8 12 1016.7 1016.6 0.0
 
Date/Time
EST
Temp
°C
App
Temp
°C
Dew
Point
°C
Rel
Hum
%
Delta-T
°C
Wind Press
QNH
hPa
Press
MSL
hPa
Rain since
9am
mm
Dir  Spd
km/h
Gust
km/h
Spd
kts
Gust
kts
27/11:30pm 17.2 14.4 8.4 56 4.5 S 13 17 7 9 1016.6 1016.5 0.0
27/11:00pm 17.9 14.4 8.7 55 4.7 S 17 28 9 15 1016.4 1016.3 0.0
27/10:30pm 18.2 15.6 9.5 57 4.6 SSE 13 22 7 12 1016.3 1016.2 0.0
27/10:00pm 16.5 15.2 11.2 71 2.8 S 9 13 5 7 1016.2 1016.1 0.0
27/09:30pm 16.1 15.8 11.3 73 2.6 S 4 6 2 3 1015.9 1015.8 0.0
27/09:00pm 16.9 17.0 11.4 70 3.0 S 2 7 1 4 1015.7 1015.6 0.0
27/08:30pm 17.6 16.9 11.4 67 3.4 S 6 9 3 5 1015.5 1015.4 0.0
27/08:00pm 17.7 18.2 11.7 68 3.3 CALM 0 0 0 0 1015.0 1014.9 0.0
27/07:30pm 18.5 17.8 11.3 63 3.9 SSE 6 7 3 4 1014.7 1014.6 0.0
27/07:00pm 19.8 18.9 11.3 58 4.7 SE 7 9 4 5 1014.3 1014.2 0.0
27/06:30pm 20.9 20.0 11.5 55 5.2 SSE 7 9 4 5 1014.2 1014.1 0.0
27/06:00pm 22.1 21.2 11.5 51 5.9 S 7 9 4 5 1013.9 1013.8 0.0
27/05:30pm 23.4 21.3 11.1 46 6.9 S 13 19 7 10 1013.4 1013.3 0.0
27/05:00pm 24.2 22.1 11.2 44 7.3 SSE 13 19 7 10 1012.9 1012.8 0.0
27/04:30pm 24.8 22.2 10.7 41 7.9 SSE 15 22 8 12 1012.4 1012.3 0.0
27/04:00pm 25.2 22.2 10.6 40 8.1 SSE 17 26 9 14 1012.2 1012.1 0.0
27/03:30pm 25.4 22.4 10.8 40 8.2 S 17 24 9 13 1012.2 1012.1 0.0
27/03:00pm 25.9 23.3 12.0 42 8.0 S 17 26 9 14 1012.1 1012.0 0.0
27/02:30pm 25.6 23.0 12.1 43 7.7 SSE 17 26 9 14 1012.2 1012.1 0.0
27/02:00pm 25.7 23.5 12.2 43 7.8 S 15 24 8 13 1012.2 1012.1 0.0
27/01:30pm 25.2 23.0 12.1 44 7.5 SSE 15 24 8 13 1012.4 1012.3 0.0
27/01:00pm 25.8 23.5 11.6 41 8.1 SSE 15 22 8 12 1012.6 1012.5 0.0
27/12:30pm 25.2 23.0 12.1 44 7.5 SSE 15 22 8 12 1012.9 1012.8 0.0
27/12:00pm 24.9 22.4 12.2 45 7.3 S 17 26 9 14 1013.4 1013.3 0.0
27/11:30am 24.6 21.7 12.2 46 7.1 SSE 19 26 10 14 1013.9 1013.8 0.0
27/11:00am 25.3 22.7 13.2 47 7.1 S 19 26 10 14 1014.2 1014.1 0.0
27/10:30am 24.2 21.8 12.8 49 6.6 S 17 24 9 13 1014.5 1014.4 0.0
27/10:00am 24.0 22.2 13.2 50 6.3 S 15 22 8 12 1014.5 1014.4 0.0
27/09:30am 23.3 20.4 12.3 50 6.3 SSE 19 30 10 16 1014.6 1014.5 0.0
27/09:00am 22.8 19.7 12.1 51 6.0 SSE 20 28 11 15 1014.4 1014.3 0.0
27/08:30am 22.4 19.8 13.2 56 5.3 S 19 26 10 14 1014.3 1014.2 0.0
27/08:00am 21.7 19.4 13.1 58 4.9 S 17 26 9 14 1014.0 1013.9 0.0
27/07:30am 21.5 19.3 13.2 59 4.8 S 17 28 9 15 1013.7 1013.6 0.0
27/07:00am 21.2 20.1 15.3 69 3.5 S 15 26 8 14 1013.2 1013.1 0.0
27/06:30am 21.4 21.3 17.0 76 2.7 S 13 20 7 11 1012.9 1012.8 0.0
27/06:00am 21.5 22.5 18.7 84 1.8 S 11 17 6 9 1012.4 1012.3 0.0
27/05:30am 21.5 23.4 19.8 90 1.1 S 9 15 5 8 1012.3 1012.2 0.0
27/05:00am 21.2 23.4 19.7 91 1.0 S 7 13 4 7 1011.9 1011.8 0.0
27/04:30am 21.1 23.3 19.6 91 1.0 S 7 11 4 6 1011.5 1011.4 0.0
27/04:00am 20.8 23.0 19.6 93 0.8 S 7 11 4 6 1011.4 1011.3 0.0
27/03:30am 20.6 22.7 19.3 92 0.8 WSW 7 9 4 5 1011.5 1011.4 0.0
27/03:00am 20.9 23.7 18.8 88 1.3 WSW 2 6 1 3 1011.3 1011.2 0.0
27/02:30am 21.3 24.6 19.2 88 1.3 CALM 0 4 0 2 1011.6 1011.5 0.0
27/02:00am 21.5 22.8 19.4 88 1.3 S 11 17 6 9 1011.7 1011.6 0.0
27/01:30am 20.7 21.7 19.4 92 0.8 S 13 22 7 12 1011.9 1011.8 0.0
27/01:00am 20.0 22.0 18.7 92 0.8 WSW 6 11 3 6 1011.4 1011.3 0.0
27/12:30am 20.1 23.2 18.6 91 0.9 CALM 0 6 0 3 1011.3 1011.2 0.0
27/12:00am 20.2 23.2 18.5 90 1.1 CALM 0 0 0 0 1011.6 1011.5 0.0
 
Date/Time
EST
Temp
°C
App
Temp
°C
Dew
Point
°C
Rel
Hum
%
Delta-T
°C
Wind Press
QNH
hPa
Press
MSL
hPa
Rain since
9am
mm
Dir  Spd
km/h
Gust
km/h
Spd
kts
Gust
kts
26/11:30pm 20.6 23.7 18.7 89 1.2 CALM 0 0 0 0 1011.8 1011.7 0.0
26/11:00pm 21.1 24.2 18.7 86 1.5 CALM 0 0 0 0 1012.1 1012.0 0.0
26/10:30pm 21.6 23.3 18.6 83 1.9 N 7 9 4 5 1012.2 1012.1 0.0
26/10:00pm 21.9 23.8 18.9 83 1.9 N 7 9 4 5 1012.3 1012.2 0.0
26/09:30pm 22.1 24.3 19.1 83 1.9 NNE 6 7 3 4 1012.2 1012.1 0.0
26/09:00pm 22.5 24.7 19.3 82 2.0 NNE 6 9 3 5 1012.2 1012.1 0.0
26/08:30pm 22.9 25.0 20.1 84 1.8 NNE 9 13 5 7 1012.1 1012.0 0.0
26/08:00pm 23.1 25.2 20.2 84 1.9 NNE 9 11 5 6 1012.0 1011.9 0.0
26/07:30pm 23.3 25.1 20.4 84 1.9 NNE 11 15 6 8 1011.7 1011.6 0.0
26/07:00pm 23.6 25.3 20.1 81 2.3 NNE 11 17 6 9 1011.4 1011.3 0.0
26/06:30pm 23.9 26.0 20.2 80 2.4 NNE 9 13 5 7 1011.2 1011.1 0.0
26/06:00pm 24.2 26.1 20.5 80 2.4 NNE 11 19 6 10 1011.0 1010.9 0.0
26/05:30pm 24.7 26.0 20.2 76 2.9 NNE 13 19 7 10 1010.6 1010.5 0.0
26/05:00pm 25.6 25.6 19.0 67 4.2 NNE 17 24 9 13 1010.5 1010.4 0.0
26/04:30pm 26.3 26.5 19.4 66 4.5 NNE 17 24 9 13 1010.5 1010.4 0.0
26/04:00pm 26.9 27.4 20.0 66 4.5 NE 17 22 9 12 1010.4 1010.3 0.0
26/03:30pm 27.1 27.4 19.7 64 4.8 NE 17 22 9 12 1010.2 1010.1 0.0
26/03:00pm 27.7 28.1 19.8 62 5.2 NNE 17 22 9 12 1010.2 1010.1 0.0
26/02:30pm 27.5 27.5 19.8 63 5.0 NNE 19 24 10 13 1010.5 1010.4 0.0
26/02:00pm 27.5 27.8 19.6 62 5.1 NNE 17 24 9 13 1011.0 1010.9 0.0
26/01:30pm 28.0 28.4 19.8 61 5.3 NNE 17 22 9 12 1011.3 1011.2 0.0
26/01:00pm 27.4 28.1 19.7 63 5.0 NNE 15 19 8 10 1011.8 1011.7 0.0
26/12:30pm 27.6 28.6 20.2 64 4.8 NNE 15 20 8 11 1012.2 1012.1 0.0
26/12:00pm 27.8 29.0 19.8 61 5.2 NNE 13 17 7 9 1013.0 1012.9 0.0
26/11:30am 27.5 29.3 18.8 59 5.6 NE 7 11 4 6 1013.5 1013.4 0.0
26/11:00am 26.8 29.2 18.9 62 5.1 E 4 9 2 5 1014.2 1014.1 0.0
26/10:30am 26.5 28.7 19.6 66 4.5 ENE 7 13 4 7 1014.6 1014.5 0.0
26/10:00am 25.7 28.3 20.0 71 3.7 N 6 9 3 5 1015.1 1015.0 0.0
26/09:30am 24.7 27.4 20.2 76 2.9 N 6 9 3 5 1015.3 1015.2 0.0
26/09:00am 24.1 28.1 20.6 81 2.3 CALM 0 0 0 0 1015.3 1015.2 0.0
26/08:30am 21.7 24.0 19.4 87 1.5 SSW 6 7 3 4 1015.4 1015.3 0.0
26/08:00am 20.2 22.6 18.7 91 0.9 S 4 7 2 4 1015.2 1015.1 0.0
26/07:30am 19.0 21.9 18.2 95 0.5 CALM 0 2 0 1 1015.0 1014.9 0.0
26/07:00am 18.2 20.4 17.4 95 0.5 SW 2 6 1 3 1014.7 1014.6 0.0
26/06:30am 17.3 19.4 16.3 94 0.6 CALM 0 0 0 0 1014.6 1014.5 0.0
26/06:00am 17.4 19.6 16.4 94 0.6 CALM 0 0 0 0 1014.2 1014.1 0.0
26/05:30am 17.3 19.0 16.2 93 0.7 SW 2 6 1 3 1014.0 1013.9 0.0
26/05:00am 17.6 18.7 16.6 94 0.6 SW 6 7 3 4 1014.0 1013.9 0.0
26/04:30am 17.8 18.9 16.7 93 0.7 SW 6 7 3 4 1013.9 1013.8 0.0
26/04:00am 17.9 19.8 16.8 93 0.7 WSW 2 6 1 3 1014.0 1013.9 0.0
26/03:30am 17.9 20.2 16.8 93 0.7 CALM 0 4 0 2 1014.0 1013.9 0.0
26/03:00am 17.9 19.8 16.6 92 0.8 WNW 2 9 1 5 1014.1 1014.0 0.0
26/02:30am 18.6 20.7 17.1 91 0.9 SSW 2 6 1 3 1014.5 1014.4 0.0
26/02:00am 19.1 20.7 17.8 92 0.8 SW 6 7 3 4 1014.8 1014.7 0.0
26/01:30am 19.0 20.5 17.7 92 0.8 SW 6 6 3 3 1014.9 1014.8 0.0
26/01:00am 19.0 20.5 17.7 92 0.8 WSW 6 7 3 4 1015.0 1014.9 0.0
26/12:30am 19.1 21.7 17.6 91 0.9 CALM 0 0 0 0 1015.0 1014.9 0.0
26/12:00am 19.1 21.7 17.4 90 1.0 CALM 0 0 0 0 1015.2 1015.1 0.0
 
Date/Time
EST
Temp
°C
App
Temp
°C
Dew
Point
°C
Rel
Hum
%
Delta-T
°C
Wind Press
QNH
hPa
Press
MSL
hPa
Rain since
9am
mm
Dir  Spd
km/h
Gust
km/h
Spd
kts
Gust
kts
25/11:30pm 20.0 22.9 18.3 90 1.1 CALM 0 0 0 0 1015.6 1015.5 0.0
25/11:00pm 20.3 23.4 18.6 90 1.1 CALM 0 0 0 0 1015.9 1015.8 0.0
25/10:30pm 20.5 22.5 18.8 90 1.1 WSW 6 7 3 4 1016.0 1015.9 0.0
25/10:00pm 20.5 22.4 18.6 89 1.2 WSW 6 7 3 4 1016.0 1015.9 0.0
25/09:30pm 21.2 24.4 18.9 87 1.4 CALM 0 0 0 0 1015.9 1015.8 0.0
25/09:00pm 21.6 24.9 19.0 85 1.6 CALM 0 0 0 0 1016.1 1016.0 0.0
25/08:30pm 21.7 25.1 19.3 86 1.5 CALM 0 0 0 0 1016.1 1016.0 0.0
25/08:00pm 22.0 25.3 19.0 83 1.9 CALM 0 0 0 0 1016.1 1016.0 0.0
25/07:30pm 22.4 25.0 19.2 82 2.0 NNW 4 7 2 4 1016.0 1015.9 0.0
25/07:00pm 22.9 25.0 19.3 80 2.3 N 7 9 4 5 1015.7 1015.6 0.0
25/06:30pm 23.6 25.0 19.5 78 2.6 N 11 13 6 7 1015.2 1015.1 0.0

Other Formats:

Comma delimited format used in spreadsheet applications
http://www.bom.gov.au/fwo/IDQ60801/IDQ60801.95369.axf

JavaScript Object Notation format (JSON) in row-major order
http://www.bom.gov.au/fwo/IDQ60801/IDQ60801.95369.json